sensor_id;sensor_type;location;lat;lon;timestamp;noise_LAeq;noise_LA_min;noise_LA_max;noise_LA01;noise_LA95
49732;Laerm;43666;51.442;6.778;2023-06-04T00:00:09;40.86;39.08;42.29;;
49732;Laerm;43666;51.442;6.778;2023-06-04T00:02:35;40.87;38.95;42.22;;
49732;Laerm;43666;51.442;6.778;2023-06-04T00:05:01;40.85;39.08;42.16;;
49732;Laerm;43666;51.442;6.778;2023-06-04T00:07:27;40.86;38.52;42.41;;
49732;Laerm;43666;51.442;6.778;2023-06-04T00:09:53;40.86;39.08;42.29;;
49732;Laerm;43666;51.442;6.778;2023-06-04T00:12:18;40.85;38.81;42.65;;
49732;Laerm;43666;51.442;6.778;2023-06-04T00:14:45;40.86;38.67;42.47;;
49732;Laerm;43666;51.442;6.778;2023-06-04T00:17:11;40.85;39.08;42.35;;
49732;Laerm;43666;51.442;6.778;2023-06-04T00:19:38;40.88;38.81;42.22;;
49732;Laerm;43666;51.442;6.778;2023-06-04T00:22:05;40.86;39.08;42.16;;
49732;Laerm;43666;51.442;6.778;2023-06-04T00:24:32;40.87;39.34;42.47;;
49732;Laerm;43666;51.442;6.778;2023-06-04T00:26:58;40.85;39.34;42.35;;
49732;Laerm;43666;51.442;6.778;2023-06-04T00:29:24;40.87;39.08;42.41;;
49732;Laerm;43666;51.442;6.778;2023-06-04T00:31:50;40.86;38.95;42.29;;
49732;Laerm;43666;51.442;6.778;2023-06-04T00:34:16;40.86;39.21;42.29;;
49732;Laerm;43666;51.442;6.778;2023-06-04T00:36:43;40.87;38.81;42.41;;
49732;Laerm;43666;51.442;6.778;2023-06-04T00:39:09;40.86;39.21;42.22;;
49732;Laerm;43666;51.442;6.778;2023-06-04T00:41:35;40.83;39.08;42.16;;
49732;Laerm;43666;51.442;6.778;2023-06-04T00:44:01;40.83;39.08;42.22;;
49732;Laerm;43666;51.442;6.778;2023-06-04T00:46:28;40.82;39.34;42.41;;
49732;Laerm;43666;51.442;6.778;2023-06-04T00:48:54;40.81;39.08;42.16;;
49732;Laerm;43666;51.442;6.778;2023-06-04T00:51:21;40.80;38.81;42.29;;
49732;Laerm;43666;51.442;6.778;2023-06-04T00:53:50;40.80;39.08;42.29;;
49732;Laerm;43666;51.442;6.778;2023-06-04T00:56:16;40.78;38.81;42.35;;
49732;Laerm;43666;51.442;6.778;2023-06-04T00:58:43;40.79;39.08;42.03;;
49732;Laerm;43666;51.442;6.778;2023-06-04T01:01:18;40.79;38.37;42.29;;
49732;Laerm;43666;51.442;6.778;2023-06-04T01:03:47;40.76;38.95;42.22;;
49732;Laerm;43666;51.442;6.778;2023-06-04T01:06:59;40.73;38.67;42.29;;
49732;Laerm;43666;51.442;6.778;2023-06-04T01:08:59;40.70;38.95;41.96;;
49732;Laerm;43666;51.442;6.778;2023-06-04T01:13:58;40.66;39.21;42.16;;
49732;Laerm;43666;51.442;6.778;2023-06-04T01:16:24;40.64;38.37;42.03;;
49732;Laerm;43666;51.442;6.778;2023-06-04T01:18:51;40.63;38.81;42.09;;
49732;Laerm;43666;51.442;6.778;2023-06-04T01:21:17;40.57;38.52;42.03;;
49732;Laerm;43666;51.442;6.778;2023-06-04T01:23:49;40.53;38.81;41.82;;
49732;Laerm;43666;51.442;6.778;2023-06-04T01:26:27;40.45;38.81;42.03;;
49732;Laerm;43666;51.442;6.778;2023-06-04T01:28:54;40.44;38.52;42.03;;
49732;Laerm;43666;51.442;6.778;2023-06-04T01:31:21;40.44;38.37;41.89;;
49732;Laerm;43666;51.442;6.778;2023-06-04T01:33:52;40.44;38.52;41.89;;
49732;Laerm;43666;51.442;6.778;2023-06-04T01:36:18;40.44;38.52;41.96;;
49732;Laerm;43666;51.442;6.778;2023-06-04T01:38:44;40.45;38.52;41.82;;
49732;Laerm;43666;51.442;6.778;2023-06-04T01:41:10;40.44;38.81;42.09;;
49732;Laerm;43666;51.442;6.778;2023-06-04T01:43:36;40.44;38.81;42.16;;
49732;Laerm;43666;51.442;6.778;2023-06-04T01:46:03;40.44;38.37;41.82;;
49732;Laerm;43666;51.442;6.778;2023-06-04T01:48:29;40.42;38.52;41.75;;
49732;Laerm;43666;51.442;6.778;2023-06-04T01:50:55;40.39;38.37;41.89;;
49732;Laerm;43666;51.442;6.778;2023-06-04T01:53:21;40.37;38.37;41.96;;
49732;Laerm;43666;51.442;6.778;2023-06-04T01:55:49;40.35;38.37;41.96;;
49732;Laerm;43666;51.442;6.778;2023-06-04T01:58:15;40.28;38.37;41.82;;
49732;Laerm;43666;51.442;6.778;2023-06-04T02:00:55;40.21;38.37;41.61;;
49732;Laerm;43666;51.442;6.778;2023-06-04T02:03:26;40.20;38.37;41.75;;
49732;Laerm;43666;51.442;6.778;2023-06-04T02:05:52;40.12;38.37;41.61;;
49732;Laerm;43666;51.442;6.778;2023-06-04T02:08:18;40.10;38.05;41.55;;
49732;Laerm;43666;51.442;6.778;2023-06-04T02:10:47;40.07;38.37;41.68;;
49732;Laerm;43666;51.442;6.778;2023-06-04T02:13:13;40.03;38.05;41.68;;
49732;Laerm;43666;51.442;6.778;2023-06-04T02:15:40;39.99;37.88;41.68;;
49732;Laerm;43666;51.442;6.778;2023-06-04T02:18:17;39.93;38.05;41.53;;
49732;Laerm;43666;51.442;6.778;2023-06-04T02:20:45;39.87;37.88;41.89;;
49732;Laerm;43666;51.442;6.778;2023-06-04T02:23:14;39.71;37.70;41.30;;
49732;Laerm;43666;51.442;6.778;2023-06-04T02:25:42;39.65;37.52;41.38;;
49732;Laerm;43666;51.442;6.778;2023-06-04T02:28:10;39.61;37.52;41.22;;
49732;Laerm;43666;51.442;6.778;2023-06-04T02:30:36;39.61;37.88;41.61;;
49732;Laerm;43666;51.442;6.778;2023-06-04T02:33:04;39.58;36.91;41.22;;
49732;Laerm;43666;51.442;6.778;2023-06-04T02:35:30;39.59;37.32;41.22;;
49732;Laerm;43666;51.442;6.778;2023-06-04T02:37:57;39.57;37.12;41.22;;
49732;Laerm;43666;51.442;6.778;2023-06-04T02:40:26;39.55;37.52;41.14;;
49732;Laerm;43666;51.442;6.778;2023-06-04T02:42:52;39.55;37.52;41.30;;
49732;Laerm;43666;51.442;6.778;2023-06-04T02:45:18;39.52;37.70;41.38;;
49732;Laerm;43666;51.442;6.778;2023-06-04T02:47:45;39.51;37.32;41.14;;
49732;Laerm;43666;51.442;6.778;2023-06-04T02:50:12;39.47;37.52;41.30;;
49732;Laerm;43666;51.442;6.778;2023-06-04T02:52:42;39.47;37.12;41.30;;
49732;Laerm;43666;51.442;6.778;2023-06-04T02:55:09;39.41;37.32;41.14;;
49732;Laerm;43666;51.442;6.778;2023-06-04T02:57:38;39.42;37.32;41.06;;
49732;Laerm;43666;51.442;6.778;2023-06-04T03:00:08;39.34;36.69;41.55;;
49732;Laerm;43666;51.442;6.778;2023-06-04T03:02:39;39.24;37.12;41.30;;
49732;Laerm;43666;51.442;6.778;2023-06-04T03:05:05;39.15;36.91;40.98;;
49732;Laerm;43666;51.442;6.778;2023-06-04T03:07:33;39.06;36.34;53.93;;
49732;Laerm;43666;51.442;6.778;2023-06-04T03:09:58;38.96;36.91;40.98;;
49732;Laerm;43666;51.442;6.778;2023-06-04T03:12:24;38.90;36.45;40.89;;
49732;Laerm;43666;51.442;6.778;2023-06-04T03:14:50;38.87;36.20;40.62;;
49732;Laerm;43666;51.442;6.778;2023-06-04T03:17:17;38.87;36.45;40.98;;
49732;Laerm;43666;51.442;6.778;2023-06-04T03:19:44;38.86;36.20;42.59;;
49732;Laerm;43666;51.442;6.778;2023-06-04T03:22:13;38.87;36.45;40.98;;
49732;Laerm;43666;51.442;6.778;2023-06-04T03:24:39;38.90;36.20;40.80;;
49732;Laerm;43666;51.442;6.778;2023-06-04T03:27:07;38.90;36.45;41.14;;
49732;Laerm;43666;51.442;6.778;2023-06-04T03:29:33;38.92;36.20;41.22;;
49732;Laerm;43666;51.442;6.778;2023-06-04T03:32:00;38.91;36.20;40.80;;
49732;Laerm;43666;51.442;6.778;2023-06-04T03:34:26;38.90;36.45;40.80;;
49732;Laerm;43666;51.442;6.778;2023-06-04T03:36:58;38.86;36.45;40.80;;
49732;Laerm;43666;51.442;6.778;2023-06-04T03:39:24;38.86;36.45;40.89;;
49732;Laerm;43666;51.442;6.778;2023-06-04T03:41:51;38.84;36.45;40.63;;
49732;Laerm;43666;51.442;6.778;2023-06-04T03:44:17;38.87;36.20;40.89;;
49732;Laerm;43666;51.442;6.778;2023-06-04T03:46:44;38.89;35.94;40.80;;
49732;Laerm;43666;51.442;6.778;2023-06-04T03:49:10;38.88;36.20;40.80;;
49732;Laerm;43666;51.442;6.778;2023-06-04T03:51:40;38.87;36.69;41.06;;
49732;Laerm;43666;51.442;6.778;2023-06-04T03:54:07;38.84;36.56;40.80;;
49732;Laerm;43666;51.442;6.778;2023-06-04T03:56:34;38.82;36.20;40.80;;
49732;Laerm;43666;51.442;6.778;2023-06-04T03:59:00;38.79;36.20;40.98;;
49732;Laerm;43666;51.442;6.778;2023-06-04T04:01:26;38.79;36.20;40.98;;
49732;Laerm;43666;51.442;6.778;2023-06-04T04:03:53;38.80;36.45;40.62;;
49732;Laerm;43666;51.442;6.778;2023-06-04T04:06:21;38.81;36.20;41.06;;
49732;Laerm;43666;51.442;6.778;2023-06-04T04:08:47;38.87;36.45;40.98;;
49732;Laerm;43666;51.442;6.778;2023-06-04T04:11:15;38.87;36.20;40.71;;
49732;Laerm;43666;51.442;6.778;2023-06-04T04:13:42;38.87;36.45;41.06;;
49732;Laerm;43666;51.442;6.778;2023-06-04T04:16:08;38.90;36.45;40.98;;
49732;Laerm;43666;51.442;6.778;2023-06-04T04:18:35;38.90;35.94;40.62;;
49732;Laerm;43666;51.442;6.778;2023-06-04T04:21:02;38.94;36.69;40.89;;
49732;Laerm;43666;51.442;6.778;2023-06-04T04:23:28;38.94;36.69;40.80;;
49732;Laerm;43666;51.442;6.778;2023-06-04T04:25:55;38.99;36.45;40.98;;
49732;Laerm;43666;51.442;6.778;2023-06-04T04:28:22;39.00;36.34;41.06;;
49732;Laerm;43666;51.442;6.778;2023-06-04T04:30:48;38.98;36.69;40.98;;
49732;Laerm;43666;51.442;6.778;2023-06-04T04:33:15;38.98;36.69;40.80;;
49732;Laerm;43666;51.442;6.778;2023-06-04T04:35:44;39.00;36.69;40.89;;
49732;Laerm;43666;51.442;6.778;2023-06-04T04:38:10;39.04;36.45;40.80;;
49732;Laerm;43666;51.442;6.778;2023-06-04T04:40:37;39.04;36.20;41.30;;
49732;Laerm;43666;51.442;6.778;2023-06-04T04:43:03;39.06;36.69;40.80;;
49732;Laerm;43666;51.442;6.778;2023-06-04T04:45:29;39.08;36.69;40.89;;
49732;Laerm;43666;51.442;6.778;2023-06-04T04:47:54;39.08;36.69;41.30;;
49732;Laerm;43666;51.442;6.778;2023-06-04T04:50:20;39.07;36.45;40.80;;
49732;Laerm;43666;51.442;6.778;2023-06-04T04:52:47;39.14;36.45;40.80;;
49732;Laerm;43666;51.442;6.778;2023-06-04T04:55:17;39.15;36.91;41.06;;
49732;Laerm;43666;51.442;6.778;2023-06-04T04:57:43;39.17;36.91;41.06;;
49732;Laerm;43666;51.442;6.778;2023-06-04T05:00:09;39.20;36.69;41.38;;
49732;Laerm;43666;51.442;6.778;2023-06-04T05:02:38;39.23;36.69;41.14;;
49732;Laerm;43666;51.442;6.778;2023-06-04T05:05:04;39.22;36.91;41.53;;
49732;Laerm;43666;51.442;6.778;2023-06-04T05:07:30;39.24;36.91;41.14;;
49732;Laerm;43666;51.442;6.778;2023-06-04T05:09:56;39.26;36.91;40.98;;
49732;Laerm;43666;51.442;6.778;2023-06-04T05:12:25;39.29;37.32;41.06;;
49732;Laerm;43666;51.442;6.778;2023-06-04T05:14:52;39.38;37.32;41.06;;
49732;Laerm;43666;51.442;6.778;2023-06-04T05:17:19;39.40;37.32;41.38;;
49732;Laerm;43666;51.442;6.778;2023-06-04T05:19:48;39.47;37.32;41.14;;
49732;Laerm;43666;51.442;6.778;2023-06-04T05:22:14;39.47;37.12;41.22;;
49732;Laerm;43666;51.442;6.778;2023-06-04T05:24:46;39.51;36.69;41.06;;
49732;Laerm;43666;51.442;6.778;2023-06-04T05:27:12;39.54;37.32;41.46;;
49732;Laerm;43666;51.442;6.778;2023-06-04T05:29:41;39.57;37.52;41.46;;
49732;Laerm;43666;51.442;6.778;2023-06-04T05:32:09;39.59;37.52;41.11;;
49732;Laerm;43666;51.442;6.778;2023-06-04T05:34:40;39.60;37.32;41.30;;
49732;Laerm;43666;51.442;6.778;2023-06-04T05:37:07;39.67;37.70;41.30;;
49732;Laerm;43666;51.442;6.778;2023-06-04T05:39:34;39.69;37.52;41.46;;
49732;Laerm;43666;51.442;6.778;2023-06-04T05:42:01;39.67;37.70;41.30;;
49732;Laerm;43666;51.442;6.778;2023-06-04T05:44:27;39.72;38.05;41.96;;
49732;Laerm;43666;51.442;6.778;2023-06-04T05:46:53;39.79;37.88;41.46;;
49732;Laerm;43666;51.442;6.778;2023-06-04T05:49:19;39.82;37.32;41.68;;
49732;Laerm;43666;51.442;6.778;2023-06-04T05:51:45;39.82;37.32;41.46;;
49732;Laerm;43666;51.442;6.778;2023-06-04T05:54:12;39.84;37.70;41.38;;
49732;Laerm;43666;51.442;6.778;2023-06-04T05:56:38;39.86;37.70;41.38;;
49732;Laerm;43666;51.442;6.778;2023-06-04T05:59:05;39.91;37.70;41.46;;
49732;Laerm;43666;51.442;6.778;2023-06-04T06:01:31;39.99;37.88;41.46;;
49732;Laerm;43666;51.442;6.778;2023-06-04T06:03:58;40.07;38.32;41.68;;
49732;Laerm;43666;51.442;6.778;2023-06-04T06:06:24;40.12;38.21;41.61;;
49732;Laerm;43666;51.442;6.778;2023-06-04T06:08:50;40.20;38.52;43.09;;
49732;Laerm;43666;51.442;6.778;2023-06-04T06:11:18;40.29;38.37;43.34;;
49732;Laerm;43666;51.442;6.778;2023-06-04T06:13:45;40.34;38.37;44.03;;
49732;Laerm;43666;51.442;6.778;2023-06-04T06:16:15;40.41;38.52;41.89;;
49732;Laerm;43666;51.442;6.778;2023-06-04T06:18:45;40.46;38.81;41.75;;
49732;Laerm;43666;51.442;6.778;2023-06-04T06:21:18;40.53;38.52;42.03;;
49732;Laerm;43666;51.442;6.778;2023-06-04T06:23:47;40.57;38.81;42.09;;
49732;Laerm;43666;51.442;6.778;2023-06-04T06:26:13;40.62;39.08;41.89;;
49732;Laerm;43666;51.442;6.778;2023-06-04T06:28:39;40.64;38.95;42.03;;
49732;Laerm;43666;51.442;6.778;2023-06-04T06:31:05;40.67;39.08;41.89;;
49732;Laerm;43666;51.442;6.778;2023-06-04T06:33:31;40.73;39.08;42.03;;
49732;Laerm;43666;51.442;6.778;2023-06-04T06:35:58;40.74;39.08;42.16;;
49732;Laerm;43666;51.442;6.778;2023-06-04T06:38:25;40.73;39.08;42.16;;
49732;Laerm;43666;51.442;6.778;2023-06-04T06:40:57;40.78;39.08;42.22;;
49732;Laerm;43666;51.442;6.778;2023-06-04T06:43:26;40.81;39.08;45.42;;
49732;Laerm;43666;51.442;6.778;2023-06-04T06:45:52;40.88;39.08;42.47;;
49732;Laerm;43666;51.442;6.778;2023-06-04T06:48:18;40.91;39.34;42.16;;
49732;Laerm;43666;51.442;6.778;2023-06-04T06:50:44;40.95;39.08;42.16;;
49732;Laerm;43666;51.442;6.778;2023-06-04T06:53:10;40.96;39.34;42.29;;
49732;Laerm;43666;51.442;6.778;2023-06-04T06:55:38;40.99;39.34;42.41;;
49732;Laerm;43666;51.442;6.778;2023-06-04T06:58:04;41.00;39.21;42.29;;
49732;Laerm;43666;51.442;6.778;2023-06-04T07:00:30;41.01;39.21;42.36;;
49732;Laerm;43666;51.442;6.778;2023-06-04T07:02:59;41.05;39.46;42.59;;
49732;Laerm;43666;51.442;6.778;2023-06-04T07:05:28;41.09;39.46;42.59;;
49732;Laerm;43666;51.442;6.778;2023-06-04T07:08:00;41.09;39.08;42.41;;
49732;Laerm;43666;51.442;6.778;2023-06-04T07:10:29;41.11;39.21;42.47;;
49732;Laerm;43666;51.442;6.778;2023-06-04T07:13:01;41.12;39.08;42.47;;
49732;Laerm;43666;51.442;6.778;2023-06-04T07:15:27;41.10;39.34;42.47;;
49732;Laerm;43666;51.442;6.778;2023-06-04T07:17:58;41.10;39.21;42.53;;
49732;Laerm;43666;51.442;6.778;2023-06-04T07:20:23;41.11;39.34;42.82;;
49732;Laerm;43666;51.442;6.778;2023-06-04T07:22:51;41.11;38.67;42.53;;
49732;Laerm;43666;51.442;6.778;2023-06-04T07:25:19;41.09;39.08;42.35;;
49732;Laerm;43666;51.442;6.778;2023-06-04T07:27:50;41.11;39.21;42.59;;
49732;Laerm;43666;51.442;6.778;2023-06-04T07:30:19;41.11;39.46;42.53;;
49732;Laerm;43666;51.442;6.778;2023-06-04T07:32:47;41.09;39.46;42.35;;
49732;Laerm;43666;51.442;6.778;2023-06-04T07:35:13;41.13;39.21;42.53;;
49732;Laerm;43666;51.442;6.778;2023-06-04T07:37:40;41.11;39.35;42.53;;
49732;Laerm;43666;51.442;6.778;2023-06-04T07:40:08;41.12;39.34;42.47;;
49732;Laerm;43666;51.442;6.778;2023-06-04T07:42:36;41.13;39.34;42.65;;
49732;Laerm;43666;51.442;6.778;2023-06-04T07:45:02;41.05;39.11;42.42;;
49732;Laerm;43666;51.442;6.778;2023-06-04T07:47:28;41.00;39.21;42.53;;
49732;Laerm;43666;51.442;6.778;2023-06-04T07:49:55;40.98;38.21;42.47;;
49732;Laerm;43666;51.442;6.778;2023-06-04T07:52:20;40.95;39.21;42.41;;
49732;Laerm;43666;51.442;6.778;2023-06-04T07:54:47;41.03;39.21;42.59;;
49732;Laerm;43666;51.442;6.778;2023-06-04T07:57:13;40.97;38.52;42.53;;
49732;Laerm;43666;51.442;6.778;2023-06-04T07:59:40;40.86;38.74;42.53;;
49732;Laerm;43666;51.442;6.778;2023-06-04T08:02:06;40.89;38.81;42.53;;
49732;Laerm;43666;51.442;6.778;2023-06-04T08:04:31;41.00;38.81;42.35;;
49732;Laerm;43666;51.442;6.778;2023-06-04T08:06:58;40.94;38.95;42.41;;
49732;Laerm;43666;51.442;6.778;2023-06-04T08:09:24;40.85;38.67;42.41;;
49732;Laerm;43666;51.442;6.778;2023-06-04T08:11:51;40.89;38.37;42.59;;
49732;Laerm;43666;51.442;6.778;2023-06-04T08:14:17;40.68;37.70;42.47;;
49732;Laerm;43666;51.442;6.778;2023-06-04T08:16:45;40.59;38.05;42.35;;
49732;Laerm;43666;51.442;6.778;2023-06-04T08:19:11;40.54;38.05;42.41;;
49732;Laerm;43666;51.442;6.778;2023-06-04T08:21:37;40.47;37.70;42.22;;
49732;Laerm;43666;51.442;6.778;2023-06-04T08:24:03;40.56;37.12;42.22;;
49732;Laerm;43666;51.442;6.778;2023-06-04T08:26:29;40.61;38.37;42.29;;
49732;Laerm;43666;51.442;6.778;2023-06-04T08:28:56;40.59;37.88;42.35;;
49732;Laerm;43666;51.442;6.778;2023-06-04T08:31:22;40.68;37.70;42.35;;
49732;Laerm;43666;51.442;6.778;2023-06-04T08:33:47;40.61;37.88;42.88;;
49732;Laerm;43666;51.442;6.778;2023-06-04T08:36:14;40.63;37.88;42.29;;
49732;Laerm;43666;51.442;6.778;2023-06-04T08:38:40;40.70;38.37;42.47;;
49732;Laerm;43666;51.442;6.778;2023-06-04T08:43:38;40.47;38.05;42.22;;
49732;Laerm;43666;51.442;6.778;2023-06-04T08:52:46;40.48;38.05;42.35;;
49732;Laerm;43666;51.442;6.778;2023-06-04T08:55:12;40.39;37.70;42.22;;
49732;Laerm;43666;51.442;6.778;2023-06-04T08:57:41;40.22;37.12;42.09;;
49732;Laerm;43666;51.442;6.778;2023-06-04T09:00:08;40.18;36.69;43.34;;
49732;Laerm;43666;51.442;6.778;2023-06-04T09:02:37;40.06;37.12;42.22;;
49732;Laerm;43666;51.442;6.778;2023-06-04T09:05:04;40.11;37.12;42.41;;
49732;Laerm;43666;51.442;6.778;2023-06-04T09:07:30;40.18;37.70;43.68;;
49732;Laerm;43666;51.442;6.778;2023-06-04T09:09:57;40.12;37.32;41.89;;
49732;Laerm;43666;51.442;6.778;2023-06-04T09:12:25;39.99;36.91;44.39;;
49732;Laerm;43666;51.442;6.778;2023-06-04T09:14:52;39.92;37.32;43.04;;
49732;Laerm;43666;51.442;6.778;2023-06-04T09:17:24;39.98;37.12;41.96;;
49732;Laerm;43666;51.442;6.778;2023-06-04T09:19:53;39.91;36.91;42.35;;
49732;Laerm;43666;51.442;6.778;2023-06-04T09:22:38;39.85;36.69;41.89;;
49732;Laerm;43666;51.442;6.778;2023-06-04T09:25:05;39.75;36.69;41.75;;
49732;Laerm;43666;51.442;6.778;2023-06-04T09:27:38;39.70;36.69;46.50;;
49732;Laerm;43666;51.442;6.778;2023-06-04T09:30:05;39.61;36.69;43.58;;
49732;Laerm;43666;51.442;6.778;2023-06-04T09:32:31;39.54;36.45;41.61;;
49732;Laerm;43666;51.442;6.778;2023-06-04T09:35:10;39.36;36.20;42.65;;
49732;Laerm;43666;51.442;6.778;2023-06-04T09:37:40;39.23;34.69;41.82;;
49732;Laerm;43666;51.442;6.778;2023-06-04T09:40:06;39.31;36.20;41.68;;
49732;Laerm;43666;51.442;6.778;2023-06-04T09:42:45;39.37;36.20;41.68;;
49732;Laerm;43666;51.442;6.778;2023-06-04T09:45:11;39.23;35.94;41.48;;
49732;Laerm;43666;51.442;6.778;2023-06-04T09:47:39;39.21;35.66;41.30;;
49732;Laerm;43666;51.442;6.778;2023-06-04T09:50:08;39.17;35.94;41.53;;
49732;Laerm;43666;51.442;6.778;2023-06-04T09:52:34;39.23;34.69;41.61;;
49732;Laerm;43666;51.442;6.778;2023-06-04T09:55:00;39.25;35.04;41.46;;
49732;Laerm;43666;51.442;6.778;2023-06-04T09:57:26;39.11;35.36;41.30;;
49732;Laerm;43666;51.442;6.778;2023-06-04T09:59:55;39.10;35.36;41.46;;
49732;Laerm;43666;51.442;6.778;2023-06-04T10:02:22;39.20;36.20;41.61;;
49732;Laerm;43666;51.442;6.778;2023-06-04T10:04:58;39.26;35.94;41.46;;
49732;Laerm;43666;51.442;6.778;2023-06-04T10:07:25;39.19;35.94;44.51;;
49732;Laerm;43666;51.442;6.778;2023-06-04T10:09:52;39.31;35.66;45.04;;
49732;Laerm;43666;51.442;6.778;2023-06-04T10:12:25;39.10;35.04;41.61;;
49732;Laerm;43666;51.442;6.778;2023-06-04T10:14:59;39.11;35.94;41.30;;
49732;Laerm;43666;51.442;6.778;2023-06-04T10:17:28;39.23;35.66;41.61;;
49732;Laerm;43666;51.442;6.778;2023-06-04T10:19:55;39.32;35.94;41.68;;
49732;Laerm;43666;51.442;6.778;2023-06-04T10:22:21;39.24;35.94;41.46;;
49732;Laerm;43666;51.442;6.778;2023-06-04T10:24:47;39.23;35.66;41.89;;
49732;Laerm;43666;51.442;6.778;2023-06-04T10:27:16;39.27;35.94;44.73;;
49732;Laerm;43666;51.442;6.778;2023-06-04T10:29:43;39.18;35.66;42.16;;
49732;Laerm;43666;51.442;6.778;2023-06-04T10:32:17;39.15;35.36;41.82;;
49732;Laerm;43666;51.442;6.778;2023-06-04T10:34:46;39.05;35.94;41.61;;
49732;Laerm;43666;51.442;6.778;2023-06-04T10:37:19;39.14;35.36;41.53;;
49732;Laerm;43666;51.442;6.778;2023-06-04T10:39:50;39.19;35.94;41.46;;
49732;Laerm;43666;51.442;6.778;2023-06-04T10:42:16;39.15;35.66;41.46;;
49732;Laerm;43666;51.442;6.778;2023-06-04T10:44:45;39.14;35.66;41.53;;
49732;Laerm;43666;51.442;6.778;2023-06-04T10:47:20;39.02;34.69;42.09;;
49732;Laerm;43666;51.442;6.778;2023-06-04T10:49:48;38.95;35.36;41.46;;
49732;Laerm;43666;51.442;6.778;2023-06-04T10:52:16;38.89;35.36;41.38;;
49732;Laerm;43666;51.442;6.778;2023-06-04T10:54:41;38.98;34.69;42.79;;
49732;Laerm;43666;51.442;6.778;2023-06-04T10:59:39;38.93;35.36;41.38;;
49732;Laerm;43666;51.442;6.778;2023-06-04T11:02:05;38.92;35.36;41.30;;
49732;Laerm;43666;51.442;6.778;2023-06-04T11:04:32;38.94;35.04;41.14;;
49732;Laerm;43666;51.442;6.778;2023-06-04T11:07:02;38.95;35.36;41.53;;
49732;Laerm;43666;51.442;6.778;2023-06-04T11:09:29;38.92;34.69;41.30;;
49732;Laerm;43666;51.442;6.778;2023-06-04T11:11:58;38.84;35.36;43.29;;
49732;Laerm;43666;51.442;6.778;2023-06-04T11:14:25;38.79;34.69;42.29;;
49732;Laerm;43666;51.442;6.778;2023-06-04T11:16:51;38.80;35.04;42.03;;
49732;Laerm;43666;51.442;6.778;2023-06-04T11:19:16;38.83;34.31;41.14;;
49732;Laerm;43666;51.442;6.778;2023-06-04T11:21:42;38.83;35.04;41.38;;
49732;Laerm;43666;51.442;6.778;2023-06-04T11:24:09;38.90;35.04;41.30;;
49732;Laerm;43666;51.442;6.778;2023-06-04T11:26:36;38.85;35.04;41.46;;
49732;Laerm;43666;51.442;6.778;2023-06-04T11:29:06;38.78;34.31;41.53;;
49732;Laerm;43666;51.442;6.778;2023-06-04T11:31:42;38.77;34.31;41.06;;
49732;Laerm;43666;51.442;6.778;2023-06-04T11:34:08;38.74;35.04;41.30;;
49732;Laerm;43666;51.442;6.778;2023-06-04T11:36:35;38.74;33.90;41.30;;
49732;Laerm;43666;51.442;6.778;2023-06-04T11:39:02;38.83;34.69;41.11;;
49732;Laerm;43666;51.442;6.778;2023-06-04T11:41:29;38.78;34.69;41.46;;
49732;Laerm;43666;51.442;6.778;2023-06-04T11:43:55;38.74;34.31;42.82;;
49732;Laerm;43666;51.442;6.778;2023-06-04T11:46:21;38.71;34.69;41.46;;
49732;Laerm;43666;51.442;6.778;2023-06-04T11:48:47;38.73;34.69;41.06;;
49732;Laerm;43666;51.442;6.778;2023-06-04T11:51:13;38.75;35.36;41.14;;
49732;Laerm;43666;51.442;6.778;2023-06-04T11:53:42;38.77;34.69;40.98;;
49732;Laerm;43666;51.442;6.778;2023-06-04T11:56:10;38.71;34.31;44.27;;
49732;Laerm;43666;51.442;6.778;2023-06-04T11:58:37;38.77;35.04;41.30;;
49732;Laerm;43666;51.442;6.778;2023-06-04T12:01:13;38.83;35.04;41.61;;
49732;Laerm;43666;51.442;6.778;2023-06-04T12:03:41;38.69;34.69;41.82;;
49732;Laerm;43666;51.442;6.778;2023-06-04T12:06:18;38.61;33.44;43.09;;
49732;Laerm;43666;51.442;6.778;2023-06-04T12:08:51;38.62;35.04;41.22;;
49732;Laerm;43666;51.442;6.778;2023-06-04T12:11:34;38.61;33.44;43.09;;
49732;Laerm;43666;51.442;6.778;2023-06-04T12:14:03;38.55;34.69;41.82;;
49732;Laerm;43666;51.442;6.778;2023-06-04T12:16:29;38.61;33.90;43.76;;
49732;Laerm;43666;51.442;6.778;2023-06-04T12:19:10;38.53;35.04;41.22;;
49732;Laerm;43666;51.442;6.778;2023-06-04T12:21:40;38.57;35.04;41.06;;
49732;Laerm;43666;51.442;6.778;2023-06-04T12:24:13;38.62;34.69;43.54;;
49732;Laerm;43666;51.442;6.778;2023-06-04T12:26:40;38.62;35.04;44.07;;
49732;Laerm;43666;51.442;6.778;2023-06-04T12:29:15;38.56;32.93;41.06;;
49732;Laerm;43666;51.442;6.778;2023-06-04T12:31:44;38.54;34.31;43.77;;
49732;Laerm;43666;51.442;6.778;2023-06-04T12:34:14;38.66;34.69;46.80;;
49732;Laerm;43666;51.442;6.778;2023-06-04T12:36:45;38.60;33.90;41.46;;
49732;Laerm;43666;51.442;6.778;2023-06-04T12:39:31;38.45;33.90;41.68;;
49732;Laerm;43666;51.442;6.778;2023-06-04T12:42:58;38.52;34.31;40.89;;
49732;Laerm;43666;51.442;6.778;2023-06-04T12:45:53;38.55;35.04;41.14;;
49732;Laerm;43666;51.442;6.778;2023-06-04T12:48:25;38.58;33.90;41.06;;
49732;Laerm;43666;51.442;6.778;2023-06-04T12:50:51;38.76;33.44;46.82;;
49732;Laerm;43666;51.442;6.778;2023-06-04T12:53:17;38.60;32.93;40.98;;
49732;Laerm;43666;51.442;6.778;2023-06-04T12:55:45;38.63;35.04;41.38;;
49732;Laerm;43666;51.442;6.778;2023-06-04T12:58:10;38.56;33.90;43.77;;
49732;Laerm;43666;51.442;6.778;2023-06-04T13:00:38;38.52;34.69;42.03;;
49732;Laerm;43666;51.442;6.778;2023-06-04T13:03:06;38.46;35.04;41.30;;
49732;Laerm;43666;51.442;6.778;2023-06-04T13:05:32;38.44;34.69;42.98;;
49732;Laerm;43666;51.442;6.778;2023-06-04T13:08:17;38.41;33.90;41.03;;
49732;Laerm;43666;51.442;6.778;2023-06-04T13:10:45;38.46;34.34;41.68;;
49732;Laerm;43666;51.442;6.778;2023-06-04T13:13:14;38.38;34.31;41.30;;
49732;Laerm;43666;51.442;6.778;2023-06-04T13:16:16;38.41;34.31;41.38;;
49732;Laerm;43666;51.442;6.778;2023-06-04T13:18:43;38.45;33.90;41.53;;
49732;Laerm;43666;51.442;6.778;2023-06-04T13:21:33;38.42;34.31;41.38;;
49732;Laerm;43666;51.442;6.778;2023-06-04T13:23:59;38.48;34.31;40.98;;
49732;Laerm;43666;51.442;6.778;2023-06-04T13:26:25;38.40;34.69;41.06;;
49732;Laerm;43666;51.442;6.778;2023-06-04T13:28:51;38.41;34.69;40.98;;
49732;Laerm;43666;51.442;6.778;2023-06-04T13:31:21;38.35;34.31;41.30;;
49732;Laerm;43666;51.442;6.778;2023-06-04T13:33:48;38.66;34.31;48.78;;
49732;Laerm;43666;51.442;6.778;2023-06-04T13:36:16;38.39;34.31;43.54;;
49732;Laerm;43666;51.442;6.778;2023-06-04T13:38:42;38.33;34.31;41.22;;
49732;Laerm;43666;51.442;6.778;2023-06-04T13:41:08;38.48;34.31;43.54;;
49732;Laerm;43666;51.442;6.778;2023-06-04T13:43:35;38.28;33.44;40.89;;
49732;Laerm;43666;51.442;6.778;2023-06-04T13:46:01;38.39;34.31;43.58;;
49732;Laerm;43666;51.442;6.778;2023-06-04T13:48:30;38.36;33.44;41.38;;
49732;Laerm;43666;51.442;6.778;2023-06-04T13:50:56;38.41;34.31;40.80;;
49732;Laerm;43666;51.442;6.778;2023-06-04T13:53:22;38.45;31.68;40.89;;
49732;Laerm;43666;51.442;6.778;2023-06-04T13:55:52;38.40;33.44;40.80;;
49732;Laerm;43666;51.442;6.778;2023-06-04T13:58:26;38.41;34.31;40.89;;
49732;Laerm;43666;51.442;6.778;2023-06-04T14:00:55;38.42;34.31;41.38;;
49732;Laerm;43666;51.442;6.778;2023-06-04T14:03:21;38.36;34.31;42.16;;